sensor_id;sensor_type;location;lat;lon;timestamp;temperature;humidity
65573;SHT30;52214;50.940;13.996;2023-05-07T00:01:36;9.73;85.70
65573;SHT30;52214;50.940;13.996;2023-05-07T00:04:05;9.73;85.67
65573;SHT30;52214;50.940;13.996;2023-05-07T00:06:32;9.74;85.58
65573;SHT30;52214;50.940;13.996;2023-05-07T00:09:00;9.73;85.60
65573;SHT30;52214;50.940;13.996;2023-05-07T00:11:27;9.73;85.64
65573;SHT30;52214;50.940;13.996;2023-05-07T00:13:54;9.73;85.64
65573;SHT30;52214;50.940;13.996;2023-05-07T00:16:22;9.73;85.60
65573;SHT30;52214;50.940;13.996;2023-05-07T00:18:50;9.73;85.64
65573;SHT30;52214;50.940;13.996;2023-05-07T00:21:16;9.74;85.58
65573;SHT30;52214;50.940;13.996;2023-05-07T00:23:42;9.73;85.61
65573;SHT30;52214;50.940;13.996;2023-05-07T00:26:08;9.71;85.60
65573;SHT30;52214;50.940;13.996;2023-05-07T00:28:34;9.71;85.60
65573;SHT30;52214;50.940;13.996;2023-05-07T00:31:00;9.71;85.55
65573;SHT30;52214;50.940;13.996;2023-05-07T00:33:28;9.73;85.64
65573;SHT30;52214;50.940;13.996;2023-05-07T00:35:54;9.75;85.61
65573;SHT30;52214;50.940;13.996;2023-05-07T00:38:23;9.74;85.55
65573;SHT30;52214;50.940;13.996;2023-05-07T00:40:49;9.70;85.58
65573;SHT30;52214;50.940;13.996;2023-05-07T00:43:17;9.71;85.61
65573;SHT30;52214;50.940;13.996;2023-05-07T00:45:46;9.71;85.61
65573;SHT30;52214;50.940;13.996;2023-05-07T00:48:14;9.73;85.57
65573;SHT30;52214;50.940;13.996;2023-05-07T00:50:40;9.71;85.55
65573;SHT30;52214;50.940;13.996;2023-05-07T00:53:07;9.70;85.56
65573;SHT30;52214;50.940;13.996;2023-05-07T00:55:36;9.70;85.54
65573;SHT30;52214;50.940;13.996;2023-05-07T00:58:05;9.73;85.56
65573;SHT30;52214;50.940;13.996;2023-05-07T01:00:34;9.70;85.53
65573;SHT30;52214;50.940;13.996;2023-05-07T01:03:09;9.71;85.48
65573;SHT30;52214;50.940;13.996;2023-05-07T01:05:38;9.75;85.54
65573;SHT30;52214;50.940;13.996;2023-05-07T01:08:04;9.73;85.50
65573;SHT30;52214;50.940;13.996;2023-05-07T01:10:33;9.71;85.51
65573;SHT30;52214;50.940;13.996;2023-05-07T01:13:01;9.73;85.53
65573;SHT30;52214;50.940;13.996;2023-05-07T01:15:34;9.71;85.49
65573;SHT30;52214;50.940;13.996;2023-05-07T01:18:00;9.71;85.44
65573;SHT30;52214;50.940;13.996;2023-05-07T01:20:32;9.71;85.45
65573;SHT30;52214;50.940;13.996;2023-05-07T01:23:01;9.73;85.45
65573;SHT30;52214;50.940;13.996;2023-05-07T01:25:27;9.73;85.48
65573;SHT30;52214;50.940;13.996;2023-05-07T01:28:00;9.71;85.49
65573;SHT30;52214;50.940;13.996;2023-05-07T01:30:27;9.70;85.45
65573;SHT30;52214;50.940;13.996;2023-05-07T01:33:07;9.70;85.48
65573;SHT30;52214;50.940;13.996;2023-05-07T01:35:39;9.73;85.48
65573;SHT30;52214;50.940;13.996;2023-05-07T01:38:08;9.70;85.43
65573;SHT30;52214;50.940;13.996;2023-05-07T01:40:41;9.69;85.44
65573;SHT30;52214;50.940;13.996;2023-05-07T01:43:11;9.73;85.45
65573;SHT30;52214;50.940;13.996;2023-05-07T01:45:41;9.73;85.41
65573;SHT30;52214;50.940;13.996;2023-05-07T01:48:09;9.70;85.38
65573;SHT30;52214;50.940;13.996;2023-05-07T01:50:42;9.69;85.43
65573;SHT30;52214;50.940;13.996;2023-05-07T01:53:08;9.70;85.42
65573;SHT30;52214;50.940;13.996;2023-05-07T01:55:37;9.67;85.40
65573;SHT30;52214;50.940;13.996;2023-05-07T01:58:06;9.67;85.40
65573;SHT30;52214;50.940;13.996;2023-05-07T02:00:34;9.69;85.43
65573;SHT30;52214;50.940;13.996;2023-05-07T02:03:00;9.69;85.44
65573;SHT30;52214;50.940;13.996;2023-05-07T02:05:31;9.67;85.40
65573;SHT30;52214;50.940;13.996;2023-05-07T02:08:03;9.67;85.45
65573;SHT30;52214;50.940;13.996;2023-05-07T02:10:31;9.66;85.43
65573;SHT30;52214;50.940;13.996;2023-05-07T02:13:00;9.67;85.49
65573;SHT30;52214;50.940;13.996;2023-05-07T02:15:31;9.67;85.49
65573;SHT30;52214;50.940;13.996;2023-05-07T02:18:05;9.67;85.48
65573;SHT30;52214;50.940;13.996;2023-05-07T02:20:34;9.67;85.46
65573;SHT30;52214;50.940;13.996;2023-05-07T02:23:00;9.67;85.40
65573;SHT30;52214;50.940;13.996;2023-05-07T02:25:31;9.69;85.43
65573;SHT30;52214;50.940;13.996;2023-05-07T02:28:02;9.67;85.40
65573;SHT30;52214;50.940;13.996;2023-05-07T02:30:33;9.69;85.49
65573;SHT30;52214;50.940;13.996;2023-05-07T02:32:59;9.69;85.50
65573;SHT30;52214;50.940;13.996;2023-05-07T02:35:28;9.67;85.50
65573;SHT30;52214;50.940;13.996;2023-05-07T02:37:54;9.67;85.46
65573;SHT30;52214;50.940;13.996;2023-05-07T02:40:20;9.64;85.54
65573;SHT30;52214;50.940;13.996;2023-05-07T02:42:46;9.64;85.48
65573;SHT30;52214;50.940;13.996;2023-05-07T02:45:14;9.64;85.49
65573;SHT30;52214;50.940;13.996;2023-05-07T02:47:40;9.66;85.41
65573;SHT30;52214;50.940;13.996;2023-05-07T02:50:09;9.66;85.37
65573;SHT30;52214;50.940;13.996;2023-05-07T02:52:41;9.64;85.42
65573;SHT30;52214;50.940;13.996;2023-05-07T02:55:10;9.64;85.38
65573;SHT30;52214;50.940;13.996;2023-05-07T02:57:36;9.64;85.42
65573;SHT30;52214;50.940;13.996;2023-05-07T03:00:22;9.64;85.28
65573;SHT30;52214;50.940;13.996;2023-05-07T03:02:58;9.64;85.33
65573;SHT30;52214;50.940;13.996;2023-05-07T03:05:27;9.66;85.34
65573;SHT30;52214;50.940;13.996;2023-05-07T03:07:53;9.64;85.30
65573;SHT30;52214;50.940;13.996;2023-05-07T03:10:18;9.67;85.31
65573;SHT30;52214;50.940;13.996;2023-05-07T03:12:47;9.64;85.33
65573;SHT30;52214;50.940;13.996;2023-05-07T03:15:19;9.64;85.34
65573;SHT30;52214;50.940;13.996;2023-05-07T03:17:52;9.64;85.27
65573;SHT30;52214;50.940;13.996;2023-05-07T03:20:18;9.64;85.31
65573;SHT30;52214;50.940;13.996;2023-05-07T03:22:47;9.63;85.29
65573;SHT30;52214;50.940;13.996;2023-05-07T03:25:13;9.63;85.29
65573;SHT30;52214;50.940;13.996;2023-05-07T03:27:42;9.61;85.22
65573;SHT30;52214;50.940;13.996;2023-05-07T03:30:10;9.61;85.29
65573;SHT30;52214;50.940;13.996;2023-05-07T03:32:36;9.63;85.28
65573;SHT30;52214;50.940;13.996;2023-05-07T03:35:02;9.60;85.29
65573;SHT30;52214;50.940;13.996;2023-05-07T03:37:28;9.61;85.27
65573;SHT30;52214;50.940;13.996;2023-05-07T03:39:53;9.61;85.19
65573;SHT30;52214;50.940;13.996;2023-05-07T03:42:19;9.61;85.24
65573;SHT30;52214;50.940;13.996;2023-05-07T03:44:45;9.58;85.12
65573;SHT30;52214;50.940;13.996;2023-05-07T03:47:10;9.57;85.19
65573;SHT30;52214;50.940;13.996;2023-05-07T03:49:36;9.57;85.14
65573;SHT30;52214;50.940;13.996;2023-05-07T03:52:02;9.58;85.23
65573;SHT30;52214;50.940;13.996;2023-05-07T03:54:28;9.58;85.27
65573;SHT30;52214;50.940;13.996;2023-05-07T03:56:53;9.58;85.10
65573;SHT30;52214;50.940;13.996;2023-05-07T03:59:19;9.57;85.21
65573;SHT30;52214;50.940;13.996;2023-05-07T04:01:44;9.57;85.08
65573;SHT30;52214;50.940;13.996;2023-05-07T04:04:10;9.56;85.18
65573;SHT30;52214;50.940;13.996;2023-05-07T04:06:35;9.57;85.19
65573;SHT30;52214;50.940;13.996;2023-05-07T04:09:01;9.56;85.16
65573;SHT30;52214;50.940;13.996;2023-05-07T04:11:27;9.56;85.20
65573;SHT30;52214;50.940;13.996;2023-05-07T04:13:53;9.57;85.15
65573;SHT30;52214;50.940;13.996;2023-05-07T04:16:19;9.57;85.23
65573;SHT30;52214;50.940;13.996;2023-05-07T04:18:45;9.57;85.03
65573;SHT30;52214;50.940;13.996;2023-05-07T04:21:15;9.53;85.02
65573;SHT30;52214;50.940;13.996;2023-05-07T04:23:41;9.57;85.11
65573;SHT30;52214;50.940;13.996;2023-05-07T04:26:06;9.54;85.12
65573;SHT30;52214;50.940;13.996;2023-05-07T04:28:32;9.56;85.11
65573;SHT30;52214;50.940;13.996;2023-05-07T04:30:58;9.54;85.16
65573;SHT30;52214;50.940;13.996;2023-05-07T04:33:23;9.53;85.07
65573;SHT30;52214;50.940;13.996;2023-05-07T04:35:49;9.56;85.11
65573;SHT30;52214;50.940;13.996;2023-05-07T04:38:14;9.53;85.06
65573;SHT30;52214;50.940;13.996;2023-05-07T04:40:44;9.56;85.11
65573;SHT30;52214;50.940;13.996;2023-05-07T04:43:10;9.56;85.01
65573;SHT30;52214;50.940;13.996;2023-05-07T04:45:36;9.56;85.02
65573;SHT30;52214;50.940;13.996;2023-05-07T04:48:02;9.53;85.06
65573;SHT30;52214;50.940;13.996;2023-05-07T04:50:27;9.53;85.04
65573;SHT30;52214;50.940;13.996;2023-05-07T04:52:53;9.57;84.92
65573;SHT30;52214;50.940;13.996;2023-05-07T04:55:19;9.56;85.00
65573;SHT30;52214;50.940;13.996;2023-05-07T04:57:44;9.54;84.99
65573;SHT30;52214;50.940;13.996;2023-05-07T05:00:11;9.56;84.98
65573;SHT30;52214;50.940;13.996;2023-05-07T05:02:39;9.56;85.02
65573;SHT30;52214;50.940;13.996;2023-05-07T05:05:06;9.54;85.01
65573;SHT30;52214;50.940;13.996;2023-05-07T05:07:32;9.54;85.02
65573;SHT30;52214;50.940;13.996;2023-05-07T05:09:58;9.54;84.95
65573;SHT30;52214;50.940;13.996;2023-05-07T05:12:23;9.56;84.93
65573;SHT30;52214;50.940;13.996;2023-05-07T05:14:49;9.56;84.97
65573;SHT30;52214;50.940;13.996;2023-05-07T05:17:18;9.53;85.02
65573;SHT30;52214;50.940;13.996;2023-05-07T05:19:43;9.53;84.99
65573;SHT30;52214;50.940;13.996;2023-05-07T05:22:09;9.53;85.01
65573;SHT30;52214;50.940;13.996;2023-05-07T05:24:34;9.51;85.07
65573;SHT30;52214;50.940;13.996;2023-05-07T05:27:00;9.53;85.06
65573;SHT30;52214;50.940;13.996;2023-05-07T05:29:27;9.54;85.11
65573;SHT30;52214;50.940;13.996;2023-05-07T05:31:52;9.54;85.04
65573;SHT30;52214;50.940;13.996;2023-05-07T05:34:18;9.54;85.06
65573;SHT30;52214;50.940;13.996;2023-05-07T05:36:45;9.53;85.06
65573;SHT30;52214;50.940;13.996;2023-05-07T05:39:11;9.51;85.04
65573;SHT30;52214;50.940;13.996;2023-05-07T05:41:36;9.51;85.05
65573;SHT30;52214;50.940;13.996;2023-05-07T05:44:02;9.54;85.07
65573;SHT30;52214;50.940;13.996;2023-05-07T05:46:27;9.50;85.07
65573;SHT30;52214;50.940;13.996;2023-05-07T05:48:53;9.53;85.06
65573;SHT30;52214;50.940;13.996;2023-05-07T05:51:20;9.53;85.07
65573;SHT30;52214;50.940;13.996;2023-05-07T05:53:46;9.53;85.07
65573;SHT30;52214;50.940;13.996;2023-05-07T05:56:12;9.53;85.03
65573;SHT30;52214;50.940;13.996;2023-05-07T05:58:38;9.53;85.04
65573;SHT30;52214;50.940;13.996;2023-05-07T06:01:04;9.51;85.05
65573;SHT30;52214;50.940;13.996;2023-05-07T06:03:31;9.53;85.13
65573;SHT30;52214;50.940;13.996;2023-05-07T06:05:57;9.53;85.14
65573;SHT30;52214;50.940;13.996;2023-05-07T06:08:23;9.50;85.13
65573;SHT30;52214;50.940;13.996;2023-05-07T06:10:49;9.53;85.20
65573;SHT30;52214;50.940;13.996;2023-05-07T06:13:15;9.54;85.16
65573;SHT30;52214;50.940;13.996;2023-05-07T06:15:40;9.51;85.18
65573;SHT30;52214;50.940;13.996;2023-05-07T06:18:06;9.51;85.23
65573;SHT30;52214;50.940;13.996;2023-05-07T06:20:31;9.53;85.31
65573;SHT30;52214;50.940;13.996;2023-05-07T06:22:57;9.53;85.24
65573;SHT30;52214;50.940;13.996;2023-05-07T06:25:23;9.50;85.30
65573;SHT30;52214;50.940;13.996;2023-05-07T06:27:48;9.53;85.43
65573;SHT30;52214;50.940;13.996;2023-05-07T06:30:14;9.53;85.47
65573;SHT30;52214;50.940;13.996;2023-05-07T06:32:40;9.51;85.40
65573;SHT30;52214;50.940;13.996;2023-05-07T06:35:06;9.51;85.42
65573;SHT30;52214;50.940;13.996;2023-05-07T06:37:32;9.51;85.60
65573;SHT30;52214;50.940;13.996;2023-05-07T06:39:57;9.51;85.51
65573;SHT30;52214;50.940;13.996;2023-05-07T06:42:23;9.51;85.70
65573;SHT30;52214;50.940;13.996;2023-05-07T06:44:48;9.51;85.53
65573;SHT30;52214;50.940;13.996;2023-05-07T06:47:14;9.54;85.70
65573;SHT30;52214;50.940;13.996;2023-05-07T06:49:40;9.51;85.82
65573;SHT30;52214;50.940;13.996;2023-05-07T06:52:05;9.53;86.03
65573;SHT30;52214;50.940;13.996;2023-05-07T06:54:31;9.53;85.89
65573;SHT30;52214;50.940;13.996;2023-05-07T06:56:56;9.54;85.97
65573;SHT30;52214;50.940;13.996;2023-05-07T06:59:23;9.54;85.92
65573;SHT30;52214;50.940;13.996;2023-05-07T07:01:49;9.57;86.28
65573;SHT30;52214;50.940;13.996;2023-05-07T07:04:14;9.56;86.09
65573;SHT30;52214;50.940;13.996;2023-05-07T07:06:40;9.56;86.11
65573;SHT30;52214;50.940;13.996;2023-05-07T07:09:06;9.60;86.00
65573;SHT30;52214;50.940;13.996;2023-05-07T07:11:32;9.60;86.28
65573;SHT30;52214;50.940;13.996;2023-05-07T07:13:57;9.60;85.93
65573;SHT30;52214;50.940;13.996;2023-05-07T07:16:24;9.60;86.16
65573;SHT30;52214;50.940;13.996;2023-05-07T07:18:50;9.64;85.85
65573;SHT30;52214;50.940;13.996;2023-05-07T07:21:16;9.66;85.79
65573;SHT30;52214;50.940;13.996;2023-05-07T07:23:42;9.66;85.72
65573;SHT30;52214;50.940;13.996;2023-05-07T07:26:07;9.67;85.83
65573;SHT30;52214;50.940;13.996;2023-05-07T07:28:33;9.67;85.79
65573;SHT30;52214;50.940;13.996;2023-05-07T07:30:59;9.70;85.82
65573;SHT30;52214;50.940;13.996;2023-05-07T07:33:24;9.70;85.77
65573;SHT30;52214;50.940;13.996;2023-05-07T07:35:50;9.70;85.78
65573;SHT30;52214;50.940;13.996;2023-05-07T07:38:15;9.70;85.81
65573;SHT30;52214;50.940;13.996;2023-05-07T07:40:41;9.73;85.73
65573;SHT30;52214;50.940;13.996;2023-05-07T07:43:09;9.71;85.78
65573;SHT30;52214;50.940;13.996;2023-05-07T07:45:35;9.73;85.86
65573;SHT30;52214;50.940;13.996;2023-05-07T07:48:00;9.71;85.93
65573;SHT30;52214;50.940;13.996;2023-05-07T07:50:26;9.74;86.12
65573;SHT30;52214;50.940;13.996;2023-05-07T07:52:51;9.73;86.38
65573;SHT30;52214;50.940;13.996;2023-05-07T07:55:19;9.75;86.44
65573;SHT30;52214;50.940;13.996;2023-05-07T07:57:49;9.75;86.51
65573;SHT30;52214;50.940;13.996;2023-05-07T08:00:15;9.78;86.62
65573;SHT30;52214;50.940;13.996;2023-05-07T08:02:42;9.81;86.48
65573;SHT30;52214;50.940;13.996;2023-05-07T08:05:07;9.83;86.68
65573;SHT30;52214;50.940;13.996;2023-05-07T08:07:33;9.84;86.77
65573;SHT30;52214;50.940;13.996;2023-05-07T08:09:59;9.84;86.96
65573;SHT30;52214;50.940;13.996;2023-05-07T08:12:24;9.87;86.98
65573;SHT30;52214;50.940;13.996;2023-05-07T08:14:50;9.87;87.13
65573;SHT30;52214;50.940;13.996;2023-05-07T08:17:16;9.90;86.97
65573;SHT30;52214;50.940;13.996;2023-05-07T08:19:42;9.93;87.00
65573;SHT30;52214;50.940;13.996;2023-05-07T08:22:10;9.93;87.06
65573;SHT30;52214;50.940;13.996;2023-05-07T08:24:36;9.94;87.03
65573;SHT30;52214;50.940;13.996;2023-05-07T08:27:02;9.97;86.94
65573;SHT30;52214;50.940;13.996;2023-05-07T08:29:27;9.98;86.96
65573;SHT30;52214;50.940;13.996;2023-05-07T08:31:53;9.99;86.91
65573;SHT30;52214;50.940;13.996;2023-05-07T08:34:19;9.99;86.91
65573;SHT30;52214;50.940;13.996;2023-05-07T08:36:45;10.02;86.93
65573;SHT30;52214;50.940;13.996;2023-05-07T08:39:15;10.04;87.02
65573;SHT30;52214;50.940;13.996;2023-05-07T08:41:44;10.05;86.97
65573;SHT30;52214;50.940;13.996;2023-05-07T08:44:13;10.08;86.96
65573;SHT30;52214;50.940;13.996;2023-05-07T08:46:41;10.12;87.02
65573;SHT30;52214;50.940;13.996;2023-05-07T08:49:07;10.13;87.00
65573;SHT30;52214;50.940;13.996;2023-05-07T08:51:34;10.13;87.01
65573;SHT30;52214;50.940;13.996;2023-05-07T08:54:01;10.18;87.02
65573;SHT30;52214;50.940;13.996;2023-05-07T08:56:27;10.18;87.05
65573;SHT30;52214;50.940;13.996;2023-05-07T08:58:52;10.21;87.20
65573;SHT30;52214;50.940;13.996;2023-05-07T09:01:22;10.26;87.22
65573;SHT30;52214;50.940;13.996;2023-05-07T09:03:49;10.26;87.34
65573;SHT30;52214;50.940;13.996;2023-05-07T09:06:15;10.32;87.26
65573;SHT30;52214;50.940;13.996;2023-05-07T09:08:48;10.32;87.23
65573;SHT30;52214;50.940;13.996;2023-05-07T09:11:14;10.36;87.25
65573;SHT30;52214;50.940;13.996;2023-05-07T09:13:40;10.42;87.29
65573;SHT30;52214;50.940;13.996;2023-05-07T09:16:13;10.45;87.32
65573;SHT30;52214;50.940;13.996;2023-05-07T09:18:43;10.45;87.18
65573;SHT30;52214;50.940;13.996;2023-05-07T09:21:11;10.49;87.31
65573;SHT30;52214;50.940;13.996;2023-05-07T09:23:38;10.52;87.27
65573;SHT30;52214;50.940;13.996;2023-05-07T09:26:03;10.55;87.25
65573;SHT30;52214;50.940;13.996;2023-05-07T09:28:29;10.59;87.23
65573;SHT30;52214;50.940;13.996;2023-05-07T09:30:56;10.60;87.27
65573;SHT30;52214;50.940;13.996;2023-05-07T09:33:27;10.64;87.32
65573;SHT30;52214;50.940;13.996;2023-05-07T09:35:52;10.64;87.31
65573;SHT30;52214;50.940;13.996;2023-05-07T09:38:21;10.68;87.45
65573;SHT30;52214;50.940;13.996;2023-05-07T09:40:47;10.70;87.40
65573;SHT30;52214;50.940;13.996;2023-05-07T09:43:13;10.75;87.35
65573;SHT30;52214;50.940;13.996;2023-05-07T09:45:39;10.74;87.45
65573;SHT30;52214;50.940;13.996;2023-05-07T09:48:06;10.80;87.44
65573;SHT30;52214;50.940;13.996;2023-05-07T09:50:36;10.81;87.55
65573;SHT30;52214;50.940;13.996;2023-05-07T09:53:04;10.84;87.59
65573;SHT30;52214;50.940;13.996;2023-05-07T09:55:30;10.87;87.67
65573;SHT30;52214;50.940;13.996;2023-05-07T09:57:57;10.90;87.61
65573;SHT30;52214;50.940;13.996;2023-05-07T10:00:25;10.94;87.74
65573;SHT30;52214;50.940;13.996;2023-05-07T10:02:56;10.95;87.76
65573;SHT30;52214;50.940;13.996;2023-05-07T10:05:22;10.98;87.78
65573;SHT30;52214;50.940;13.996;2023-05-07T10:07:50;11.01;87.72
65573;SHT30;52214;50.940;13.996;2023-05-07T10:10:17;11.05;87.80
65573;SHT30;52214;50.940;13.996;2023-05-07T10:12:43;11.11;87.83
65573;SHT30;52214;50.940;13.996;2023-05-07T10:15:10;11.14;87.88
65573;SHT30;52214;50.940;13.996;2023-05-07T10:17:37;11.19;87.86
65573;SHT30;52214;50.940;13.996;2023-05-07T10:20:04;11.18;87.90
65573;SHT30;52214;50.940;13.996;2023-05-07T10:22:38;11.23;87.89
65573;SHT30;52214;50.940;13.996;2023-05-07T10:25:13;11.28;87.89
65573;SHT30;52214;50.940;13.996;2023-05-07T10:27:41;11.28;87.93
65573;SHT30;52214;50.940;13.996;2023-05-07T10:30:34;11.36;87.93
65573;SHT30;52214;50.940;13.996;2023-05-07T10:33:05;11.40;87.91
65573;SHT30;52214;50.940;13.996;2023-05-07T10:35:38;11.43;87.94
65573;SHT30;52214;50.940;13.996;2023-05-07T10:38:06;11.47;87.89
65573;SHT30;52214;50.940;13.996;2023-05-07T10:40:32;11.53;87.91
65573;SHT30;52214;50.940;13.996;2023-05-07T10:43:00;11.55;87.87
65573;SHT30;52214;50.940;13.996;2023-05-07T10:45:27;11.60;87.90
65573;SHT30;52214;50.940;13.996;2023-05-07T10:48:11;11.63;88.00
65573;SHT30;52214;50.940;13.996;2023-05-07T10:50:38;11.69;88.04
65573;SHT30;52214;50.940;13.996;2023-05-07T10:53:21;11.71;87.91
65573;SHT30;52214;50.940;13.996;2023-05-07T10:55:51;11.76;87.95
65573;SHT30;52214;50.940;13.996;2023-05-07T10:58:27;11.78;87.97
65573;SHT30;52214;50.940;13.996;2023-05-07T11:00:59;11.85;87.99
65573;SHT30;52214;50.940;13.996;2023-05-07T11:03:26;11.84;88.09
65573;SHT30;52214;50.940;13.996;2023-05-07T11:06:10;11.90;88.12
65573;SHT30;52214;50.940;13.996;2023-05-07T11:08:55;11.90;88.18
65573;SHT30;52214;50.940;13.996;2023-05-07T11:11:46;11.94;88.30
65573;SHT30;52214;50.940;13.996;2023-05-07T11:16:41;12.01;88.39
65573;SHT30;52214;50.940;13.996;2023-05-07T11:19:07;12.04;88.39
65573;SHT30;52214;50.940;13.996;2023-05-07T11:21:35;12.08;88.37
65573;SHT30;52214;50.940;13.996;2023-05-07T11:24:03;12.11;88.39
65573;SHT30;52214;50.940;13.996;2023-05-07T11:26:41;12.14;88.40
65573;SHT30;52214;50.940;13.996;2023-05-07T11:29:12;12.18;88.41
65573;SHT30;52214;50.940;13.996;2023-05-07T11:31:38;12.21;88.47
65573;SHT30;52214;50.940;13.996;2023-05-07T11:34:04;12.24;88.47
65573;SHT30;52214;50.940;13.996;2023-05-07T11:36:31;12.22;88.50
65573;SHT30;52214;50.940;13.996;2023-05-07T11:38:57;12.28;88.58
65573;SHT30;52214;50.940;13.996;2023-05-07T11:41:22;12.32;88.51
65573;SHT30;52214;50.940;13.996;2023-05-07T11:43:59;12.33;88.62
65573;SHT30;52214;50.940;13.996;2023-05-07T11:46:26;12.38;88.61
65573;SHT30;52214;50.940;13.996;2023-05-07T11:48:52;12.38;88.63
65573;SHT30;52214;50.940;13.996;2023-05-07T11:51:19;12.43;88.64
65573;SHT30;52214;50.940;13.996;2023-05-07T11:53:46;12.42;88.75
65573;SHT30;52214;50.940;13.996;2023-05-07T11:56:14;12.47;88.72
65573;SHT30;52214;50.940;13.996;2023-05-07T11:58:41;12.49;88.76
65573;SHT30;52214;50.940;13.996;2023-05-07T12:01:09;12.52;88.77
65573;SHT30;52214;50.940;13.996;2023-05-07T12:03:36;12.56;88.77
65573;SHT30;52214;50.940;13.996;2023-05-07T12:06:05;12.59;88.77
65573;SHT30;52214;50.940;13.996;2023-05-07T12:08:32;12.60;88.76
65573;SHT30;52214;50.940;13.996;2023-05-07T12:10:58;12.64;88.78
65573;SHT30;52214;50.940;13.996;2023-05-07T12:13:25;12.66;88.82
65573;SHT30;52214;50.940;13.996;2023-05-07T12:15:51;12.68;88.81
65573;SHT30;52214;50.940;13.996;2023-05-07T12:18:17;12.72;88.87
65573;SHT30;52214;50.940;13.996;2023-05-07T12:20:43;12.74;88.83
65573;SHT30;52214;50.940;13.996;2023-05-07T12:23:10;12.79;88.83
65573;SHT30;52214;50.940;13.996;2023-05-07T12:25:38;12.79;88.85
65573;SHT30;52214;50.940;13.996;2023-05-07T12:28:07;12.84;88.82
65573;SHT30;52214;50.940;13.996;2023-05-07T12:30:40;12.85;88.81
65573;SHT30;52214;50.940;13.996;2023-05-07T12:33:08;12.87;88.84
65573;SHT30;52214;50.940;13.996;2023-05-07T12:35:39;12.90;88.86
65573;SHT30;52214;50.940;13.996;2023-05-07T12:38:11;12.93;88.83
65573;SHT30;52214;50.940;13.996;2023-05-07T12:40:39;12.98;88.80
65573;SHT30;52214;50.940;13.996;2023-05-07T12:43:04;13.00;88.81
65573;SHT30;52214;50.940;13.996;2023-05-07T12:45:30;13.02;88.82
65573;SHT30;52214;50.940;13.996;2023-05-07T12:47:56;13.07;88.91
65573;SHT30;52214;50.940;13.996;2023-05-07T12:50:31;13.11;88.81
65573;SHT30;52214;50.940;13.996;2023-05-07T12:52:57;13.14;88.82
65573;SHT30;52214;50.940;13.996;2023-05-07T12:55:23;13.15;88.93
65573;SHT30;52214;50.940;13.996;2023-05-07T12:57:50;13.18;89.07
65573;SHT30;52214;50.940;13.996;2023-05-07T13:00:17;13.21;89.06
65573;SHT30;52214;50.940;13.996;2023-05-07T13:02:43;13.21;89.06
65573;SHT30;52214;50.940;13.996;2023-05-07T13:05:10;13.25;88.92
65573;SHT30;52214;50.940;13.996;2023-05-07T13:07:37;13.26;88.90
65573;SHT30;52214;50.940;13.996;2023-05-07T13:10:03;13.26;88.85
65573;SHT30;52214;50.940;13.996;2023-05-07T13:12:29;13.30;88.89
65573;SHT30;52214;50.940;13.996;2023-05-07T13:14:55;13.35;88.87
65573;SHT30;52214;50.940;13.996;2023-05-07T13:17:21;13.35;88.91
65573;SHT30;52214;50.940;13.996;2023-05-07T13:19:46;13.38;88.90
65573;SHT30;52214;50.940;13.996;2023-05-07T13:22:12;13.36;88.86
65573;SHT30;52214;50.940;13.996;2023-05-07T13:24:41;13.40;88.92
65573;SHT30;52214;50.940;13.996;2023-05-07T13:27:08;13.40;88.88
65573;SHT30;52214;50.940;13.996;2023-05-07T13:29:40;13.43;88.90
65573;SHT30;52214;50.940;13.996;2023-05-07T13:32:08;13.47;88.84
65573;SHT30;52214;50.940;13.996;2023-05-07T13:34:33;13.49;88.87
65573;SHT30;52214;50.940;13.996;2023-05-07T13:37:15;13.52;88.87
65573;SHT30;52214;50.940;13.996;2023-05-07T13:39:44;13.53;88.85
65573;SHT30;52214;50.940;13.996;2023-05-07T13:42:11;13.56;88.82
65573;SHT30;52214;50.940;13.996;2023-05-07T13:44:42;13.56;88.83
65573;SHT30;52214;50.940;13.996;2023-05-07T13:47:13;13.57;88.82
65573;SHT30;52214;50.940;13.996;2023-05-07T13:49:42;13.60;88.83
65573;SHT30;52214;50.940;13.996;2023-05-07T13:52:11;13.60;88.79
65573;SHT30;52214;50.940;13.996;2023-05-07T13:54:39;13.63;88.77
65573;SHT30;52214;50.940;13.996;2023-05-07T13:57:22;13.65;88.77
65573;SHT30;52214;50.940;13.996;2023-05-07T13:59:48;13.66;88.85
65573;SHT30;52214;50.940;13.996;2023-05-07T14:02:16;13.67;88.86
65573;SHT30;52214;50.940;13.996;2023-05-07T14:04:48;13.70;88.79
65573;SHT30;52214;50.940;13.996;2023-05-07T14:07:26;13.73;88.79
65573;SHT30;52214;50.940;13.996;2023-05-07T14:09:54;13.76;88.81
65573;SHT30;52214;50.940;13.996;2023-05-07T14:12:29;13.76;88.79
65573;SHT30;52214;50.940;13.996;2023-05-07T14:14:54;13.78;88.81
65573;SHT30;52214;50.940;13.996;2023-05-07T14:17:23;13.80;88.79
65573;SHT30;52214;50.940;13.996;2023-05-07T14:19:53;13.81;88.84
65573;SHT30;52214;50.940;13.996;2023-05-07T14:22:24;13.80;88.85
65573;SHT30;52214;50.940;13.996;2023-05-07T14:24:55;13.83;88.85
65573;SHT30;52214;50.940;13.996;2023-05-07T14:27:25;13.84;88.88
65573;SHT30;52214;50.940;13.996;2023-05-07T14:29:57;13.88;88.87
65573;SHT30;52214;50.940;13.996;2023-05-07T14:32:23;13.88;88.85
65573;SHT30;52214;50.940;13.996;2023-05-07T14:34:54;13.90;88.90
65573;SHT30;52214;50.940;13.996;2023-05-07T14:37:20;13.93;88.87
65573;SHT30;52214;50.940;13.996;2023-05-07T14:40:02;13.93;88.91
65573;SHT30;52214;50.940;13.996;2023-05-07T14:42:34;13.97;88.87
65573;SHT30;52214;50.940;13.996;2023-05-07T14:45:24;14.00;88.88
65573;SHT30;52214;50.940;13.996;2023-05-07T14:47:50;13.98;88.88
65573;SHT30;52214;50.940;13.996;2023-05-07T14:50:24;13.97;88.90
65573;SHT30;52214;50.940;13.996;2023-05-07T14:52:50;14.01;88.95
65573;SHT30;52214;50.940;13.996;2023-05-07T14:55:30;14.02;88.95
65573;SHT30;52214;50.940;13.996;2023-05-07T14:58:01;14.02;88.94
65573;SHT30;52214;50.940;13.996;2023-05-07T15:00:31;14.04;88.94
65573;SHT30;52214;50.940;13.996;2023-05-07T15:03:07;14.04;88.96
65573;SHT30;52214;50.940;13.996;2023-05-07T15:05:41;14.07;88.95
65573;SHT30;52214;50.940;13.996;2023-05-07T15:08:09;14.08;88.91
65573;SHT30;52214;50.940;13.996;2023-05-07T15:10:41;14.08;88.92
65573;SHT30;52214;50.940;13.996;2023-05-07T15:13:13;14.08;88.90
65573;SHT30;52214;50.940;13.996;2023-05-07T15:15:41;14.08;88.87
65573;SHT30;52214;50.940;13.996;2023-05-07T15:18:08;14.08;88.91
65573;SHT30;52214;50.940;13.996;2023-05-07T15:20:34;14.10;88.91
65573;SHT30;52214;50.940;13.996;2023-05-07T15:23:03;14.10;88.84
65573;SHT30;52214;50.940;13.996;2023-05-07T15:25:31;14.11;88.86
65573;SHT30;52214;50.940;13.996;2023-05-07T15:28:03;14.10;88.88
65573;SHT30;52214;50.940;13.996;2023-05-07T15:30:30;14.11;88.84
65573;SHT30;52214;50.940;13.996;2023-05-07T15:32:59;14.11;88.84